sensor_id;sensor_type;location;lat;lon;timestamp;pressure;altitude;pressure_sealevel;temperature;humidity
36630;BME280;36256;42.154;23.002;2023-05-18T00:00:53;96676.75;;;14.80;100.00
36630;BME280;36256;42.154;23.002;2023-05-18T00:03:20;96671.84;;;14.80;100.00
36630;BME280;36256;42.154;23.002;2023-05-18T00:05:48;96677.16;;;14.73;100.00
36630;BME280;36256;42.154;23.002;2023-05-18T00:08:15;96671.53;;;14.73;100.00
36630;BME280;36256;42.154;23.002;2023-05-18T00:10:42;96670.53;;;14.76;100.00
36630;BME280;36256;42.154;23.002;2023-05-18T00:13:09;96673.63;;;14.78;100.00
36630;BME280;36256;42.154;23.002;2023-05-18T00:15:35;96670.53;;;14.76;100.00
36630;BME280;36256;42.154;23.002;2023-05-18T00:18:02;96670.25;;;14.74;100.00
36630;BME280;36256;42.154;23.002;2023-05-18T00:20:29;96666.09;;;14.69;100.00
36630;BME280;36256;42.154;23.002;2023-05-18T00:22:56;96662.63;;;14.60;100.00
36630;BME280;36256;42.154;23.002;2023-05-18T00:25:22;96668.75;;;14.53;100.00
36630;BME280;36256;42.154;23.002;2023-05-18T00:27:49;96665.63;;;14.51;100.00
36630;BME280;36256;42.154;23.002;2023-05-18T00:30:17;96667.72;;;14.56;100.00
36630;BME280;36256;42.154;23.002;2023-05-18T00:32:44;96661.38;;;14.41;100.00
36630;BME280;36256;42.154;23.002;2023-05-18T00:35:11;96656.31;;;14.45;100.00
36630;BME280;36256;42.154;23.002;2023-05-18T00:37:38;96670.91;;;14.43;100.00
36630;BME280;36256;42.154;23.002;2023-05-18T00:40:05;96666.63;;;14.48;100.00
36630;BME280;36256;42.154;23.002;2023-05-18T00:42:32;96670.56;;;14.56;100.00
36630;BME280;36256;42.154;23.002;2023-05-18T00:44:59;96672.69;;;14.61;100.00
36630;BME280;36256;42.154;23.002;2023-05-18T00:47:26;96676.06;;;14.65;100.00
36630;BME280;36256;42.154;23.002;2023-05-18T00:49:53;96667.44;;;14.74;100.00
36630;BME280;36256;42.154;23.002;2023-05-18T00:52:19;96666.16;;;14.75;100.00
36630;BME280;36256;42.154;23.002;2023-05-18T00:54:47;96668.75;;;14.78;100.00
36630;BME280;36256;42.154;23.002;2023-05-18T00:57:14;96670.88;;;14.83;100.00
36630;BME280;36256;42.154;23.002;2023-05-18T00:59:41;96666.97;;;14.81;100.00
36630;BME280;36256;42.154;23.002;2023-05-18T01:02:08;96667.81;;;14.87;100.00
36630;BME280;36256;42.154;23.002;2023-05-18T01:04:37;96656.97;;;14.80;100.00
36630;BME280;36256;42.154;23.002;2023-05-18T01:07:06;96663.03;;;14.93;100.00
36630;BME280;36256;42.154;23.002;2023-05-18T01:09:33;96661.47;;;14.92;100.00
36630;BME280;36256;42.154;23.002;2023-05-18T01:12:20;96658.91;;;14.94;100.00
36630;BME280;36256;42.154;23.002;2023-05-18T01:14:51;96665.09;;;14.98;100.00
36630;BME280;36256;42.154;23.002;2023-05-18T01:17:27;96664.66;;;15.05;100.00
36630;BME280;36256;42.154;23.002;2023-05-18T01:20:16;96670.88;;;15.09;100.00
36630;BME280;36256;42.154;23.002;2023-05-18T01:28:24;96675.69;;;15.03;100.00
36630;BME280;36256;42.154;23.002;2023-05-18T01:30:54;96674.97;;;15.08;100.00
36630;BME280;36256;42.154;23.002;2023-05-18T01:33:22;96670.31;;;15.05;100.00
36630;BME280;36256;42.154;23.002;2023-05-18T01:35:50;96668.31;;;15.11;100.00
36630;BME280;36256;42.154;23.002;2023-05-18T01:38:25;96671.19;;;15.17;100.00
36630;BME280;36256;42.154;23.002;2023-05-18T01:41:21;96673.00;;;15.14;100.00
36630;BME280;36256;42.154;23.002;2023-05-18T01:49:08;96667.63;;;15.16;100.00
36630;BME280;36256;42.154;23.002;2023-05-18T01:51:41;96663.22;;;15.15;100.00
36630;BME280;36256;42.154;23.002;2023-05-18T01:54:10;96664.50;;;15.14;100.00
36630;BME280;36256;42.154;23.002;2023-05-18T01:56:37;96661.38;;;15.12;100.00
36630;BME280;36256;42.154;23.002;2023-05-18T01:59:05;96672.41;;;15.10;100.00
36630;BME280;36256;42.154;23.002;2023-05-18T02:01:32;96676.53;;;15.09;100.00
36630;BME280;36256;42.154;23.002;2023-05-18T02:03:59;96678.06;;;15.10;100.00
36630;BME280;36256;42.154;23.002;2023-05-18T02:06:26;96678.84;;;15.11;100.00
36630;BME280;36256;42.154;23.002;2023-05-18T02:08:52;96685.00;;;15.09;100.00
36630;BME280;36256;42.154;23.002;2023-05-18T02:11:20;96682.13;;;15.04;100.00
36630;BME280;36256;42.154;23.002;2023-05-18T02:13:47;96681.63;;;15.05;100.00
36630;BME280;36256;42.154;23.002;2023-05-18T02:16:14;96691.59;;;15.01;100.00
36630;BME280;36256;42.154;23.002;2023-05-18T02:18:40;96693.13;;;15.02;100.00
36630;BME280;36256;42.154;23.002;2023-05-18T02:21:08;96690.81;;;15.00;100.00
36630;BME280;36256;42.154;23.002;2023-05-18T02:23:35;96699.00;;;14.98;100.00
36630;BME280;36256;42.154;23.002;2023-05-18T02:26:02;96697.94;;;14.95;100.00
36630;BME280;36256;42.154;23.002;2023-05-18T02:28:29;96689.00;;;14.97;100.00
36630;BME280;36256;42.154;23.002;2023-05-18T02:31:09;96693.63;;;15.00;100.00
36630;BME280;36256;42.154;23.002;2023-05-18T02:33:38;96692.38;;;15.01;100.00
36630;BME280;36256;42.154;23.002;2023-05-18T02:36:11;96684.19;;;15.03;100.00
36630;BME280;36256;42.154;23.002;2023-05-18T02:38:41;96685.91;;;14.95;100.00
36630;BME280;36256;42.154;23.002;2023-05-18T02:41:09;96687.44;;;14.96;100.00
36630;BME280;36256;42.154;23.002;2023-05-18T02:43:35;96694.91;;;14.99;100.00
36630;BME280;36256;42.154;23.002;2023-05-18T02:46:03;96676.84;;;14.91;100.00
36630;BME280;36256;42.154;23.002;2023-05-18T02:48:30;96688.50;;;14.99;100.00
36630;BME280;36256;42.154;23.002;2023-05-18T02:50:56;96685.38;;;14.97;100.00
36630;BME280;36256;42.154;23.002;2023-05-18T02:53:25;96689.28;;;14.99;100.00
36630;BME280;36256;42.154;23.002;2023-05-18T02:55:55;96699.00;;;14.98;100.00
36630;BME280;36256;42.154;23.002;2023-05-18T02:58:24;96701.78;;;14.92;100.00
36630;BME280;36256;42.154;23.002;2023-05-18T03:00:51;96708.00;;;14.97;100.00
36630;BME280;36256;42.154;23.002;2023-05-18T03:03:21;96704.66;;;14.98;100.00
36630;BME280;36256;42.154;23.002;2023-05-18T03:05:49;96701.56;;;14.96;100.00
36630;BME280;36256;42.154;23.002;2023-05-18T03:08:19;96713.13;;;14.98;100.00
36630;BME280;36256;42.154;23.002;2023-05-18T03:10:48;96712.84;;;14.96;100.00
36630;BME280;36256;42.154;23.002;2023-05-18T03:13:15;96719.22;;;14.91;100.00
36630;BME280;36256;42.154;23.002;2023-05-18T03:15:42;96727.22;;;14.92;100.00
36630;BME280;36256;42.154;23.002;2023-05-18T03:18:10;96725.72;;;14.97;100.00
36630;BME280;36256;42.154;23.002;2023-05-18T03:20:38;96706.09;;;14.88;100.00
36630;BME280;36256;42.154;23.002;2023-05-18T03:23:05;96728.81;;;14.99;100.00
36630;BME280;36256;42.154;23.002;2023-05-18T03:25:31;96730.38;;;15.00;100.00
36630;BME280;36256;42.154;23.002;2023-05-18T03:27:58;96721.34;;;14.96;100.00
36630;BME280;36256;42.154;23.002;2023-05-18T03:30:25;96742.66;;;14.97;100.00
36630;BME280;36256;42.154;23.002;2023-05-18T03:32:51;96741.66;;;15.00;100.00
36630;BME280;36256;42.154;23.002;2023-05-18T03:35:18;96735.22;;;15.00;100.00
36630;BME280;36256;42.154;23.002;2023-05-18T03:37:45;96738.56;;;14.98;100.00
36630;BME280;36256;42.154;23.002;2023-05-18T03:40:13;96752.13;;;14.94;100.00
36630;BME280;36256;42.154;23.002;2023-05-18T03:42:41;96731.94;;;14.81;100.00
36630;BME280;36256;42.154;23.002;2023-05-18T03:45:09;96754.16;;;14.93;100.00
36630;BME280;36256;42.154;23.002;2023-05-18T03:47:37;96741.19;;;14.81;100.00
36630;BME280;36256;42.154;23.002;2023-05-18T03:50:05;96756.25;;;14.93;100.00
36630;BME280;36256;42.154;23.002;2023-05-18T03:52:32;96761.66;;;14.97;100.00
36630;BME280;36256;42.154;23.002;2023-05-18T03:55:00;96750.41;;;15.02;100.00
36630;BME280;36256;42.154;23.002;2023-05-18T03:57:28;96750.69;;;15.04;100.00
36630;BME280;36256;42.154;23.002;2023-05-18T03:59:54;96761.72;;;15.02;100.00
36630;BME280;36256;42.154;23.002;2023-05-18T04:02:21;96759.41;;;15.01;100.00
36630;BME280;36256;42.154;23.002;2023-05-18T04:04:48;96752.97;;;15.00;100.00
36630;BME280;36256;42.154;23.002;2023-05-18T04:07:15;96761.94;;;14.99;100.00
36630;BME280;36256;42.154;23.002;2023-05-18T04:09:42;96759.41;;;15.01;100.00
36630;BME280;36256;42.154;23.002;2023-05-18T04:12:10;96768.94;;;15.03;100.00
36630;BME280;36256;42.154;23.002;2023-05-18T04:14:37;96764.41;;;15.11;100.00
36630;BME280;36256;42.154;23.002;2023-05-18T04:17:04;96765.19;;;15.12;100.00
36630;BME280;36256;42.154;23.002;2023-05-18T04:19:33;96767.72;;;15.10;100.00
36630;BME280;36256;42.154;23.002;2023-05-18T04:22:00;96773.16;;;15.13;100.00
36630;BME280;36256;42.154;23.002;2023-05-18T04:24:31;96769.63;;;15.18;100.00
36630;BME280;36256;42.154;23.002;2023-05-18T04:27:03;96773.28;;;15.24;100.00
36630;BME280;36256;42.154;23.002;2023-05-18T04:29:30;96776.94;;;15.30;100.00
36630;BME280;36256;42.154;23.002;2023-05-18T04:31:56;96769.28;;;15.36;100.00
36630;BME280;36256;42.154;23.002;2023-05-18T04:34:27;96783.69;;;15.38;100.00
36630;BME280;36256;42.154;23.002;2023-05-18T04:36:55;96762.16;;;15.21;100.00
36630;BME280;36256;42.154;23.002;2023-05-18T04:39:24;96772.81;;;15.31;100.00
36630;BME280;36256;42.154;23.002;2023-05-18T04:41:51;96763.31;;;15.29;100.00
36630;BME280;36256;42.154;23.002;2023-05-18T04:44:27;96762.38;;;15.37;100.00
36630;BME280;36256;42.154;23.002;2023-05-18T04:46:54;96761.34;;;15.40;100.00
36630;BME280;36256;42.154;23.002;2023-05-18T04:49:21;96763.78;;;15.47;100.00
36630;BME280;36256;42.154;23.002;2023-05-18T04:51:49;96766.09;;;15.49;100.00
36630;BME280;36256;42.154;23.002;2023-05-18T04:54:16;96773.91;;;15.59;100.00
36630;BME280;36256;42.154;23.002;2023-05-18T04:56:42;96768.81;;;15.63;100.00
36630;BME280;36256;42.154;23.002;2023-05-18T04:59:09;96778.09;;;15.69;100.00
36630;BME280;36256;42.154;23.002;2023-05-18T05:01:36;96779.59;;;15.65;100.00
36630;BME280;36256;42.154;23.002;2023-05-18T05:04:03;96774.97;;;15.62;100.00
36630;BME280;36256;42.154;23.002;2023-05-18T05:06:31;96783.50;;;15.67;100.00
36630;BME280;36256;42.154;23.002;2023-05-18T05:08:58;96768.53;;;15.61;100.00
36630;BME280;36256;42.154;23.002;2023-05-18T05:11:25;96785.16;;;15.80;100.00
36630;BME280;36256;42.154;23.002;2023-05-18T05:13:51;96779.38;;;15.94;100.00
36630;BME280;36256;42.154;23.002;2023-05-18T05:16:18;96784.91;;;16.14;100.00
36630;BME280;36256;42.154;23.002;2023-05-18T05:18:45;96781.16;;;16.28;100.00
36630;BME280;36256;42.154;23.002;2023-05-18T05:21:12;96783.09;;;16.48;100.00
36630;BME280;36256;42.154;23.002;2023-05-18T05:23:39;96784.78;;;16.71;100.00
36630;BME280;36256;42.154;23.002;2023-05-18T05:26:06;96771.06;;;16.53;100.00
36630;BME280;36256;42.154;23.002;2023-05-18T05:28:33;96790.25;;;16.80;100.00
36630;BME280;36256;42.154;23.002;2023-05-18T05:31:00;96785.84;;;16.79;100.00
36630;BME280;36256;42.154;23.002;2023-05-18T05:33:27;96781.81;;;16.91;100.00
36630;BME280;36256;42.154;23.002;2023-05-18T05:35:53;96777.19;;;16.99;100.00
36630;BME280;36256;42.154;23.002;2023-05-18T05:38:20;96773.41;;;17.24;100.00
36630;BME280;36256;42.154;23.002;2023-05-18T05:40:47;96779.44;;;17.60;100.00
36630;BME280;36256;42.154;23.002;2023-05-18T05:43:13;96780.25;;;17.93;98.27
36630;BME280;36256;42.154;23.002;2023-05-18T05:45:41;96789.53;;;18.22;97.21
36630;BME280;36256;42.154;23.002;2023-05-18T05:48:09;96789.53;;;18.22;94.14
36630;BME280;36256;42.154;23.002;2023-05-18T05:50:39;96795.47;;;18.40;94.15
36630;BME280;36256;42.154;23.002;2023-05-18T05:53:05;96800.63;;;18.14;93.16
36630;BME280;36256;42.154;23.002;2023-05-18T05:55:34;96799.34;;;17.87;93.93
36630;BME280;36256;42.154;23.002;2023-05-18T05:58:07;96797.50;;;17.68;96.85
36630;BME280;36256;42.154;23.002;2023-05-18T06:00:34;96808.91;;;17.90;95.89
36630;BME280;36256;42.154;23.002;2023-05-18T06:03:02;96807.34;;;17.89;95.04
36630;BME280;36256;42.154;23.002;2023-05-18T06:05:29;96804.75;;;18.02;95.81
36630;BME280;36256;42.154;23.002;2023-05-18T06:07:56;96807.88;;;18.37;93.07
36630;BME280;36256;42.154;23.002;2023-05-18T06:10:23;96814.56;;;18.12;93.19
36630;BME280;36256;42.154;23.002;2023-05-18T06:12:49;96812.00;;;17.92;94.24
36630;BME280;36256;42.154;23.002;2023-05-18T06:15:17;96808.84;;;17.68;96.63
36630;BME280;36256;42.154;23.002;2023-05-18T06:17:44;96814.00;;;17.53;98.61
36630;BME280;36256;42.154;23.002;2023-05-18T06:20:11;96810.59;;;17.49;97.70
36630;BME280;36256;42.154;23.002;2023-05-18T06:22:39;96815.25;;;17.46;98.10
36630;BME280;36256;42.154;23.002;2023-05-18T06:25:06;96816.25;;;17.49;100.00
36630;BME280;36256;42.154;23.002;2023-05-18T06:27:33;96818.81;;;17.41;100.00
36630;BME280;36256;42.154;23.002;2023-05-18T06:30:00;96819.81;;;17.27;100.00
36630;BME280;36256;42.154;23.002;2023-05-18T06:32:27;96822.88;;;17.18;100.00
36630;BME280;36256;42.154;23.002;2023-05-18T06:34:54;96819.25;;;17.12;100.00
36630;BME280;36256;42.154;23.002;2023-05-18T06:37:21;96819.56;;;17.31;100.00
36630;BME280;36256;42.154;23.002;2023-05-18T06:39:48;96815.72;;;17.39;99.28
36630;BME280;36256;42.154;23.002;2023-05-18T06:42:15;96822.25;;;17.62;99.59
36630;BME280;36256;42.154;23.002;2023-05-18T06:44:42;96802.69;;;17.69;98.76
36630;BME280;36256;42.154;23.002;2023-05-18T06:47:10;96813.56;;;18.37;96.98
36630;BME280;36256;42.154;23.002;2023-05-18T06:49:37;96806.34;;;18.47;93.09
36630;BME280;36256;42.154;23.002;2023-05-18T06:52:04;96815.09;;;18.38;91.03
36630;BME280;36256;42.154;23.002;2023-05-18T06:54:32;96822.56;;;18.08;91.71
36630;BME280;36256;42.154;23.002;2023-05-18T06:56:58;96823.88;;;18.13;92.60
36630;BME280;36256;42.154;23.002;2023-05-18T06:59:25;96830.06;;;18.00;92.76
36630;BME280;36256;42.154;23.002;2023-05-18T07:01:52;96824.34;;;17.67;93.54
36630;BME280;36256;42.154;23.002;2023-05-18T07:04:18;96828.75;;;17.73;95.80
36630;BME280;36256;42.154;23.002;2023-05-18T07:06:45;96832.59;;;17.65;95.36
36630;BME280;36256;42.154;23.002;2023-05-18T07:09:12;96832.09;;;17.83;96.49
36630;BME280;36256;42.154;23.002;2023-05-18T07:11:39;96825.91;;;17.79;94.86
36630;BME280;36256;42.154;23.002;2023-05-18T07:14:05;96836.22;;;17.71;96.42
36630;BME280;36256;42.154;23.002;2023-05-18T07:16:32;96838.81;;;17.80;94.21
36630;BME280;36256;42.154;23.002;2023-05-18T07:18:59;96829.28;;;17.99;94.18
36630;BME280;36256;42.154;23.002;2023-05-18T07:21:26;96829.03;;;17.92;93.66
36630;BME280;36256;42.154;23.002;2023-05-18T07:23:53;96826.94;;;17.87;93.59
36630;BME280;36256;42.154;23.002;2023-05-18T07:26:19;96825.41;;;17.86;94.08
36630;BME280;36256;42.154;23.002;2023-05-18T07:28:48;96834.69;;;17.81;94.57
36630;BME280;36256;42.154;23.002;2023-05-18T07:31:15;96832.91;;;17.94;93.90
36630;BME280;36256;42.154;23.002;2023-05-18T07:33:43;96815.34;;;17.96;94.07
36630;BME280;36256;42.154;23.002;2023-05-18T07:36:09;96835.22;;;17.96;93.35
36630;BME280;36256;42.154;23.002;2023-05-18T07:38:36;96833.41;;;17.98;94.07
36630;BME280;36256;42.154;23.002;2023-05-18T07:41:03;96830.03;;;17.89;91.82
36630;BME280;36256;42.154;23.002;2023-05-18T07:43:30;96844.00;;;17.98;93.32
36630;BME280;36256;42.154;23.002;2023-05-18T07:45:57;96849.69;;;17.92;95.88
36630;BME280;36256;42.154;23.002;2023-05-18T07:48:23;96851.50;;;18.07;95.25
36630;BME280;36256;42.154;23.002;2023-05-18T07:50:50;96855.63;;;18.06;96.62
36630;BME280;36256;42.154;23.002;2023-05-18T07:53:17;96855.38;;;18.20;96.99
36630;BME280;36256;42.154;23.002;2023-05-18T07:55:44;96857.94;;;18.29;95.92
36630;BME280;36256;42.154;23.002;2023-05-18T07:58:11;96860.28;;;18.25;94.99
36630;BME280;36256;42.154;23.002;2023-05-18T08:00:38;96848.13;;;18.08;93.23
36630;BME280;36256;42.154;23.002;2023-05-18T08:03:05;96865.16;;;18.08;91.93
36630;BME280;36256;42.154;23.002;2023-05-18T08:05:32;96871.59;;;17.97;93.18
36630;BME280;36256;42.154;23.002;2023-05-18T08:07:59;96864.91;;;18.00;95.02
36630;BME280;36256;42.154;23.002;2023-05-18T08:10:26;96877.50;;;17.77;92.20
36630;BME280;36256;42.154;23.002;2023-05-18T08:12:52;96867.69;;;17.73;93.25
36630;BME280;36256;42.154;23.002;2023-05-18T08:15:19;96875.38;;;17.56;93.74
36630;BME280;36256;42.154;23.002;2023-05-18T08:17:46;96879.69;;;17.46;94.54
36630;BME280;36256;42.154;23.002;2023-05-18T08:20:13;96865.72;;;17.31;95.85
36630;BME280;36256;42.154;23.002;2023-05-18T08:22:39;96882.22;;;17.38;96.29
36630;BME280;36256;42.154;23.002;2023-05-18T08:25:06;96884.81;;;17.36;94.39
36630;BME280;36256;42.154;23.002;2023-05-18T08:27:35;96883.25;;;17.35;97.21
36630;BME280;36256;42.154;23.002;2023-05-18T08:30:02;96877.88;;;17.43;95.05
36630;BME280;36256;42.154;23.002;2023-05-18T08:32:29;96876.91;;;17.51;94.76
36630;BME280;36256;42.154;23.002;2023-05-18T08:34:56;96882.09;;;17.64;93.77
36630;BME280;36256;42.154;23.002;2023-05-18T08:37:22;96884.44;;;17.71;92.28
36630;BME280;36256;42.154;23.002;2023-05-18T08:39:54;96877.50;;;17.72;93.70
36630;BME280;36256;42.154;23.002;2023-05-18T08:45:12;96878.25;;;17.61;93.97
36630;BME280;36256;42.154;23.002;2023-05-18T08:47:41;96897.59;;;17.63;93.72
36630;BME280;36256;42.154;23.002;2023-05-18T08:50:08;96893.22;;;17.78;91.36
36630;BME280;36256;42.154;23.002;2023-05-18T08:52:45;96902.25;;;17.77;92.70
36630;BME280;36256;42.154;23.002;2023-05-18T08:55:13;96907.91;;;17.66;92.49
36630;BME280;36256;42.154;23.002;2023-05-18T08:57:45;96918.97;;;17.64;93.05
36630;BME280;36256;42.154;23.002;2023-05-18T09:00:15;96911.50;;;17.61;91.24
36630;BME280;36256;42.154;23.002;2023-05-18T09:02:42;96916.69;;;17.68;92.62
36630;BME280;36256;42.154;23.002;2023-05-18T09:05:10;96924.97;;;17.71;93.13
36630;BME280;36256;42.154;23.002;2023-05-18T09:07:40;96923.13;;;17.68;92.00
36630;BME280;36256;42.154;23.002;2023-05-18T09:10:11;96927.41;;;17.47;91.42
36630;BME280;36256;42.154;23.002;2023-05-18T09:12:42;96939.25;;;17.40;91.54
36630;BME280;36256;42.154;23.002;2023-05-18T09:15:14;96939.66;;;17.27;90.23
36630;BME280;36256;42.154;23.002;2023-05-18T09:17:41;96940.97;;;17.26;92.53
36630;BME280;36256;42.154;23.002;2023-05-18T09:20:08;96945.03;;;17.14;91.22
36630;BME280;36256;42.154;23.002;2023-05-18T09:22:35;96930.97;;;16.94;91.68
36630;BME280;36256;42.154;23.002;2023-05-18T09:25:02;96947.78;;;17.03;92.20
36630;BME280;36256;42.154;23.002;2023-05-18T09:27:29;96953.91;;;16.91;92.01
36630;BME280;36256;42.154;23.002;2023-05-18T09:29:57;96959.03;;;16.92;92.97
36630;BME280;36256;42.154;23.002;2023-05-18T09:32:25;96961.06;;;16.86;92.52
36630;BME280;36256;42.154;23.002;2023-05-18T09:34:52;96952.22;;;16.73;93.10
36630;BME280;36256;42.154;23.002;2023-05-18T09:37:19;96959.44;;;16.74;93.33
36630;BME280;36256;42.154;23.002;2023-05-18T09:40:03;96957.09;;;16.73;93.85
36630;BME280;36256;42.154;23.002;2023-05-18T09:42:36;96954.31;;;16.78;93.48
36630;BME280;36256;42.154;23.002;2023-05-18T09:45:20;96962.53;;;16.76;94.62
36630;BME280;36256;42.154;23.002;2023-05-18T09:47:49;96947.28;;;16.68;93.83
36630;BME280;36256;42.154;23.002;2023-05-18T09:50:23;96961.66;;;16.65;94.59
36630;BME280;36256;42.154;23.002;2023-05-18T09:52:50;96952.13;;;16.62;93.54
36630;BME280;36256;42.154;23.002;2023-05-18T09:55:18;96955.25;;;16.64;94.59
36630;BME280;36256;42.154;23.002;2023-05-18T09:57:47;96958.34;;;16.66;93.62
36630;BME280;36256;42.154;23.002;2023-05-18T10:00:16;96947.03;;;16.66;93.15
36630;BME280;36256;42.154;23.002;2023-05-18T10:02:46;96969.09;;;16.62;93.10
36630;BME280;36256;42.154;23.002;2023-05-18T10:05:25;96962.22;;;16.69;92.67
36630;BME280;36256;42.154;23.002;2023-05-18T10:07:54;96952.56;;;16.86;92.49
36630;BME280;36256;42.154;23.002;2023-05-18T10:10:22;96968.78;;;16.86;91.90
36630;BME280;36256;42.154;23.002;2023-05-18T10:12:50;96958.19;;;16.81;90.29
36630;BME280;36256;42.154;23.002;2023-05-18T10:15:20;96969.41;;;17.01;90.25
36630;BME280;36256;42.154;23.002;2023-05-18T10:17:48;96970.53;;;17.14;89.92
36630;BME280;36256;42.154;23.002;2023-05-18T10:20:17;96968.44;;;17.09;88.30
36630;BME280;36256;42.154;23.002;2023-05-18T10:22:46;96963.78;;;17.06;89.32
36630;BME280;36256;42.154;23.002;2023-05-18T10:25:17;96959.75;;;17.18;88.78
36630;BME280;36256;42.154;23.002;2023-05-18T10:27:47;96943.19;;;17.11;88.39
36630;BME280;36256;42.154;23.002;2023-05-18T10:30:15;96969.88;;;17.31;87.94
36630;BME280;36256;42.154;23.002;2023-05-18T10:32:45;96953.81;;;17.22;86.58
36630;BME280;36256;42.154;23.002;2023-05-18T10:35:13;96970.59;;;17.25;86.25
36630;BME280;36256;42.154;23.002;2023-05-18T10:37:44;96972.69;;;17.31;86.89
36630;BME280;36256;42.154;23.002;2023-05-18T10:40:16;96973.50;;;17.37;86.02
36630;BME280;36256;42.154;23.002;2023-05-18T10:42:44;96972.22;;;17.38;85.69
36630;BME280;36256;42.154;23.002;2023-05-18T10:45:11;96953.53;;;17.14;84.85
36630;BME280;36256;42.154;23.002;2023-05-18T10:47:40;96963.69;;;17.32;84.74
36630;BME280;36256;42.154;23.002;2023-05-18T10:50:09;96968.63;;;17.43;84.70
36630;BME280;36256;42.154;23.002;2023-05-18T10:52:36;96972.22;;;17.38;84.67
36630;BME280;36256;42.154;23.002;2023-05-18T10:55:04;96962.34;;;17.27;84.69
36630;BME280;36256;42.154;23.002;2023-05-18T10:57:54;96980.88;;;17.17;85.55
36630;BME280;36256;42.154;23.002;2023-05-18T11:00:22;96989.91;;;17.21;86.30
36630;BME280;36256;42.154;23.002;2023-05-18T11:02:49;96993.25;;;17.20;85.46
36630;BME280;36256;42.154;23.002;2023-05-18T11:05:24;96989.09;;;17.15;86.12
36630;BME280;36256;42.154;23.002;2023-05-18T11:08:01;96994.31;;;17.22;85.69
36630;BME280;36256;42.154;23.002;2023-05-18T11:10:38;97005.19;;;17.30;85.36
36630;BME280;36256;42.154;23.002;2023-05-18T11:13:06;97006.00;;;17.36;85.26
36630;BME280;36256;42.154;23.002;2023-05-18T11:26:46;97015.38;;;17.10;88.40
36630;BME280;36256;42.154;23.002;2023-05-18T11:31:51;97006.66;;;17.19;88.90
36630;BME280;36256;42.154;23.002;2023-05-18T11:34:44;97022.22;;;17.30;87.63
36630;BME280;36256;42.154;23.002;2023-05-18T11:37:13;97001.06;;;17.31;87.56
36630;BME280;36256;42.154;23.002;2023-05-18T11:39:40;97008.59;;;17.45;86.62
36630;BME280;36256;42.154;23.002;2023-05-18T11:42:30;97010.28;;;17.57;88.88
36630;BME280;36256;42.154;23.002;2023-05-18T11:45:05;96997.41;;;17.67;86.75
36630;BME280;36256;42.154;23.002;2023-05-18T11:47:32;96996.13;;;17.68;84.28
36630;BME280;36256;42.154;23.002;2023-05-18T11:49:59;96981.13;;;17.62;81.99
36630;BME280;36256;42.154;23.002;2023-05-18T11:52:26;96992.06;;;17.80;80.31
36630;BME280;36256;42.154;23.002;2023-05-18T11:54:57;96989.97;;;17.75;78.01
36630;BME280;36256;42.154;23.002;2023-05-18T12:00:01;97007.06;;;17.86;77.86
36630;BME280;36256;42.154;23.002;2023-05-18T12:02:32;97008.56;;;17.76;78.88
36630;BME280;36256;42.154;23.002;2023-05-18T12:05:00;97022.22;;;17.72;80.81
36630;BME280;36256;42.154;23.002;2023-05-18T12:07:28;97001.13;;;17.42;80.06
36630;BME280;36256;42.154;23.002;2023-05-18T12:10:07;97008.28;;;17.32;80.87
36630;BME280;36256;42.154;23.002;2023-05-18T12:12:34;96998.91;;;17.14;84.59
36630;BME280;36256;42.154;23.002;2023-05-18T12:15:03;96996.69;;;17.30;82.54
36630;BME280;36256;42.154;23.002;2023-05-18T12:17:41;96994.91;;;17.38;83.29
36630;BME280;36256;42.154;23.002;2023-05-18T12:20:19;97005.28;;;17.46;82.58
36630;BME280;36256;42.154;23.002;2023-05-18T12:22:48;97011.00;;;17.52;81.72
36630;BME280;36256;42.154;23.002;2023-05-18T12:25:16;97005.06;;;17.50;80.75
36630;BME280;36256;42.154;23.002;2023-05-18T12:27:43;97012.47;;;17.42;79.66
36630;BME280;36256;42.154;23.002;2023-05-18T12:30:12;97001.56;;;17.29;78.68
36630;BME280;36256;42.154;23.002;2023-05-18T12:32:55;97008.22;;;17.20;77.52
36630;BME280;36256;42.154;23.002;2023-05-18T12:35:26;97007.69;;;17.16;77.11
36630;BME280;36256;42.154;23.002;2023-05-18T12:37:54;97010.28;;;17.25;78.47
36630;BME280;36256;42.154;23.002;2023-05-18T12:40:21;97008.28;;;17.32;80.10
36630;BME280;36256;42.154;23.002;2023-05-18T12:42:52;97013.47;;;17.39;78.63
36630;BME280;36256;42.154;23.002;2023-05-18T12:45:22;97012.47;;;17.42;79.02
36630;BME280;36256;42.154;23.002;2023-05-18T12:47:49;96995.47;;;17.42;76.24
36630;BME280;36256;42.154;23.002;2023-05-18T12:50:24;97000.97;;;17.51;75.31
36630;BME280;36256;42.154;23.002;2023-05-18T12:52:54;97008.19;;;17.52;74.07
36630;BME280;36256;42.154;23.002;2023-05-18T12:55:24;97006.41;;;17.60;73.98
36630;BME280;36256;42.154;23.002;2023-05-18T12:58:02;97003.31;;;17.58;72.04
36630;BME280;36256;42.154;23.002;2023-05-18T13:00:36;97006.94;;;17.64;71.46
36630;BME280;36256;42.154;23.002;2023-05-18T13:03:14;96997.16;;;17.70;70.24
36630;BME280;36256;42.154;23.002;2023-05-18T13:05:44;97001.31;;;17.69;72.11
36630;BME280;36256;42.154;23.002;2023-05-18T13:08:15;96997.22;;;17.76;70.74
36630;BME280;36256;42.154;23.002;2023-05-18T13:10:48;97008.63;;;17.92;68.99
36630;BME280;36256;42.154;23.002;2023-05-18T13:13:31;96998.75;;;17.77;68.81
36630;BME280;36256;42.154;23.002;2023-05-18T13:15:57;97003.69;;;17.82;70.52
36630;BME280;36256;42.154;23.002;2023-05-18T13:18:27;96989.44;;;17.71;68.16
36630;BME280;36256;42.154;23.002;2023-05-18T13:20:55;96988.19;;;17.77;68.45
36630;BME280;36256;42.154;23.002;2023-05-18T13:23:26;96997.75;;;17.80;67.85